createdAt,value
2022-12-23T00:02:24.770Z,2.70
2022-12-23T00:07:26.697Z,2.70
2022-12-23T00:12:47.111Z,2.70
2022-12-23T00:17:49.021Z,2.60
2022-12-23T00:23:06.059Z,2.60
2022-12-23T00:28:11.785Z,2.60
2022-12-23T00:33:18.183Z,2.60
2022-12-23T00:38:39.184Z,2.60
2022-12-23T00:43:41.008Z,2.50
2022-12-23T00:49:01.481Z,2.50
2022-12-23T00:54:03.508Z,2.50
2022-12-23T00:59:05.554Z,2.30
2022-12-23T01:04:27.501Z,2.20
2022-12-23T01:09:29.533Z,2.00
2022-12-23T01:14:31.478Z,1.90
2022-12-23T01:19:33.568Z,1.80
2022-12-23T01:24:35.393Z,1.70
2022-12-23T01:29:37.238Z,1.60
2022-12-23T01:34:39.015Z,1.60
2022-12-23T01:39:40.824Z,1.50
2022-12-23T01:44:49.934Z,1.60
2022-12-23T01:49:56.683Z,1.60
2022-12-23T01:54:58.464Z,1.60
2022-12-23T02:00:19.011Z,1.50
2022-12-23T02:05:22.529Z,1.50
2022-12-23T02:10:28.231Z,1.50
2022-12-23T02:15:55.187Z,1.40
2022-12-23T02:21:27.358Z,1.40
2022-12-23T02:26:34.947Z,1.40
2022-12-23T02:31:45.619Z,1.30
2022-12-23T02:37:05.363Z,1.30
2022-12-23T02:42:16.019Z,1.30
2022-12-23T02:47:23.930Z,1.30
2022-12-23T02:52:32.104Z,1.30
2022-12-23T02:57:36.905Z,1.20
2022-12-23T03:02:40.285Z,1.20
2022-12-23T03:07:42.804Z,1.20
2022-12-23T03:12:54.754Z,1.30
2022-12-23T03:18:12.465Z,1.30
2022-12-23T03:23:23.090Z,1.30
2022-12-23T03:28:34.570Z,1.30
2022-12-23T03:33:42.779Z,1.40
2022-12-23T03:38:45.396Z,1.40
2022-12-23T03:43:53.275Z,1.40
2022-12-23T03:49:05.923Z,1.40
2022-12-23T03:54:12.693Z,1.50
2022-12-23T03:59:20.260Z,1.50
2022-12-23T04:04:30.602Z,1.50
2022-12-23T04:09:32.606Z,1.60
2022-12-23T04:14:35.556Z,1.60
2022-12-23T04:19:37.370Z,1.70
2022-12-23T04:24:39.361Z,1.70
2022-12-23T04:29:42.010Z,1.70
2022-12-23T04:34:44.590Z,1.70
2022-12-23T04:39:46.437Z,1.80
2022-12-23T04:44:48.224Z,1.80
2022-12-23T04:49:50.027Z,1.80
2022-12-23T04:54:51.823Z,2.00
2022-12-23T04:59:53.674Z,2.10
2022-12-23T05:04:55.695Z,2.20
2022-12-23T05:10:01.653Z,2.20
2022-12-23T05:15:03.984Z,2.20
2022-12-23T05:20:06.525Z,2.30
2022-12-23T05:25:09.089Z,2.30
2022-12-23T05:30:11.344Z,2.30
2022-12-23T05:35:13.152Z,2.30
2022-12-23T05:40:18.478Z,2.30
2022-12-23T05:45:23.534Z,2.30
2022-12-23T05:50:25.356Z,2.30
2022-12-23T05:55:27.321Z,2.30
2022-12-23T06:00:29.391Z,2.30
2022-12-23T06:05:31.533Z,2.40
2022-12-23T06:10:33.357Z,2.30
2022-12-23T06:15:35.154Z,2.40
2022-12-23T06:20:36.963Z,2.40
2022-12-23T06:25:38.759Z,2.40
2022-12-23T06:30:40.553Z,2.40
2022-12-23T06:35:43.182Z,2.40
2022-12-23T06:40:45.036Z,2.50
2022-12-23T06:45:48.754Z,2.50
2022-12-23T06:50:50.680Z,2.50
2022-12-23T06:56:02.603Z,2.50
2022-12-23T07:01:04.633Z,2.50
2022-12-23T07:06:07.121Z,2.40
2022-12-23T07:11:08.911Z,2.40
2022-12-23T07:16:10.736Z,2.30
2022-12-23T07:21:21.155Z,2.30
2022-12-23T07:26:26.609Z,2.40
2022-12-23T07:31:28.502Z,2.40
2022-12-23T07:36:35.981Z,2.40
2022-12-23T07:41:37.810Z,2.40
2022-12-23T07:46:39.762Z,2.50
2022-12-23T07:51:41.639Z,2.40
2022-12-23T07:56:43.443Z,2.40
2022-12-23T08:01:45.443Z,2.50
2022-12-23T08:06:53.901Z,2.60
2022-12-23T08:11:58.271Z,2.60
2022-12-23T08:17:00.154Z,2.60
2022-12-23T08:22:02.072Z,2.60
2022-12-23T08:27:03.950Z,2.70
2022-12-23T08:32:07.603Z,2.80
2022-12-23T08:37:10.124Z,2.80
2022-12-23T08:42:11.905Z,2.90
2022-12-23T08:47:13.727Z,3.00
2022-12-23T08:52:15.512Z,2.90
2022-12-23T08:57:17.340Z,3.00
2022-12-23T09:02:19.280Z,3.00
2022-12-23T09:07:21.852Z,3.00
2022-12-23T09:12:25.841Z,3.10
2022-12-23T09:17:28.176Z,3.00
2022-12-23T09:22:32.525Z,3.10
2022-12-23T09:27:34.329Z,3.20
2022-12-23T09:32:36.184Z,3.20
2022-12-23T09:37:38.105Z,3.30
2022-12-23T09:43:04.314Z,3.20
2022-12-23T09:48:10.287Z,3.30
2022-12-23T09:53:20.365Z,3.30
2022-12-23T09:58:28.094Z,3.40
2022-12-23T10:03:38.412Z,3.50
2022-12-23T10:08:46.607Z,3.60
2022-12-23T10:13:56.344Z,3.70
2022-12-23T10:19:41.686Z,3.70
2022-12-23T10:24:47.171Z,3.60
2022-12-23T10:29:48.997Z,3.60
2022-12-23T10:34:59.603Z,3.60
2022-12-23T10:40:23.074Z,3.60
2022-12-23T10:45:43.557Z,3.70
2022-12-23T10:51:11.729Z,3.70
2022-12-23T10:56:15.891Z,3.80
2022-12-23T11:01:26.462Z,3.80
2022-12-23T11:06:36.602Z,3.80
2022-12-23T11:11:59.737Z,3.90
2022-12-23T11:17:04.245Z,4.00
2022-12-23T11:22:06.157Z,4.00
2022-12-23T11:27:13.347Z,4.10
2022-12-23T11:32:19.017Z,4.00
2022-12-23T11:37:36.689Z,4.00
2022-12-23T11:42:40.987Z,4.00
2022-12-23T11:47:43.200Z,4.00
2022-12-23T11:52:51.771Z,4.00
2022-12-23T11:57:53.677Z,4.00
2022-12-23T12:02:57.084Z,4.10
2022-12-23T12:08:06.507Z,4.10
2022-12-23T12:13:22.869Z,4.20
2022-12-23T12:18:25.982Z,4.30
2022-12-23T12:24:08.328Z,4.30
2022-12-23T12:29:42.456Z,4.40
2022-12-23T12:34:51.344Z,4.40
2022-12-23T12:39:56.205Z,4.50
2022-12-23T12:45:16.883Z,4.50
2022-12-23T12:50:23.621Z,4.50
2022-12-23T12:55:29.493Z,4.40
2022-12-23T13:00:41.492Z,4.40
2022-12-23T13:06:05.171Z,4.30
2022-12-23T13:11:28.250Z,4.30
2022-12-23T13:16:45.585Z,4.30
2022-12-23T13:21:54.011Z,4.30
2022-12-23T13:27:00.630Z,4.30
2022-12-23T13:32:14.367Z,4.30
2022-12-23T13:37:54.977Z,4.30
2022-12-23T13:43:00.320Z,4.40
2022-12-23T13:48:26.938Z,4.40
2022-12-23T13:53:43.744Z,4.40
2022-12-23T13:58:49.208Z,4.50
2022-12-23T14:03:51.233Z,4.40
2022-12-23T14:08:54.390Z,4.40
2022-12-23T14:13:59.299Z,4.40
2022-12-23T14:19:16.411Z,4.30
2022-12-23T14:24:45.362Z,4.20
2022-12-23T14:29:57.388Z,4.20
2022-12-23T14:35:06.449Z,4.10
2022-12-23T14:40:47.311Z,4.00
2022-12-23T14:45:50.284Z,4.00
2022-12-23T14:51:00.575Z,3.90
2022-12-23T14:56:14.696Z,3.90
2022-12-23T15:01:18.845Z,3.90
2022-12-23T15:06:28.483Z,3.80
2022-12-23T15:11:32.126Z,3.80
2022-12-23T15:16:39.702Z,3.70
2022-12-23T15:21:42.593Z,3.60
2022-12-23T15:27:17.553Z,3.60
2022-12-23T15:32:13.781Z,3.60
2022-12-23T15:37:27.785Z,3.50
2022-12-23T15:42:47.722Z,3.50
2022-12-23T15:47:50.559Z,3.50
2022-12-23T15:52:54.498Z,3.40
2022-12-23T15:57:57.643Z,3.30
2022-12-23T16:03:01.917Z,3.30
2022-12-23T16:08:28.641Z,3.30
2022-12-23T16:13:32.792Z,3.30
2022-12-23T16:18:47.015Z,3.40
2022-12-23T16:23:51.986Z,3.40
2022-12-23T16:28:59.456Z,3.30
2022-12-23T16:34:05.022Z,3.20
2022-12-23T16:39:06.839Z,3.10
2022-12-23T16:44:08.861Z,3.10
2022-12-23T16:49:21.555Z,3.10
2022-12-23T16:54:23.385Z,3.10
2022-12-23T16:59:25.994Z,3.20
2022-12-23T17:04:27.848Z,3.20
2022-12-23T17:09:29.741Z,3.20
2022-12-23T17:14:31.579Z,3.30
2022-12-23T17:19:35.920Z,3.20
2022-12-23T17:24:38.693Z,3.30
2022-12-23T17:29:40.813Z,3.30
2022-12-23T17:34:42.665Z,3.20
2022-12-23T17:39:47.231Z,3.30
2022-12-23T17:44:50.264Z,3.30
2022-12-23T17:50:08.434Z,3.30
2022-12-23T17:55:31.009Z,3.30
2022-12-23T18:00:34.586Z,3.40
2022-12-23T18:05:36.852Z,3.30
2022-12-23T18:10:40.401Z,3.30
2022-12-23T18:15:43.531Z,3.30
2022-12-23T18:20:53.072Z,3.30
2022-12-23T18:25:56.329Z,3.30
2022-12-23T18:30:58.581Z,3.40
2022-12-23T18:36:00.868Z,3.40
2022-12-23T18:41:03.179Z,3.40
2022-12-23T18:46:05.306Z,3.50
2022-12-23T18:51:07.311Z,3.50
2022-12-23T18:56:15.603Z,3.50
2022-12-23T19:01:18.609Z,3.50
2022-12-23T19:06:20.519Z,3.50
2022-12-23T19:11:22.581Z,3.50
2022-12-23T19:16:24.562Z,3.40
2022-12-23T19:21:27.579Z,3.40
2022-12-23T19:26:32.826Z,3.50
2022-12-23T19:31:35.109Z,3.40
2022-12-23T19:36:37.118Z,3.50
2022-12-23T19:41:39.166Z,3.40
2022-12-23T19:46:41.291Z,3.50
2022-12-23T19:51:43.297Z,3.50
2022-12-23T19:56:45.585Z,3.50
2022-12-23T20:01:47.766Z,3.50
2022-12-23T20:06:50.782Z,3.50
2022-12-23T20:12:02.239Z,3.50
2022-12-23T20:17:04.146Z,3.50
2022-12-23T20:22:06.043Z,3.50
2022-12-23T20:27:11.978Z,3.40
2022-12-23T20:32:17.275Z,3.50
2022-12-23T20:37:19.131Z,3.40
2022-12-23T20:42:21.156Z,3.50
2022-12-23T20:47:22.998Z,3.50
2022-12-23T20:52:25.614Z,3.50
2022-12-23T20:57:28.454Z,3.50
2022-12-23T21:02:30.331Z,3.60
2022-12-23T21:07:32.204Z,3.60
2022-12-23T21:12:34.068Z,3.70
2022-12-23T21:17:36.836Z,3.70
2022-12-23T21:22:48.788Z,3.80
2022-12-23T21:27:51.485Z,3.80
2022-12-23T21:33:00.257Z,3.90
2022-12-23T21:38:02.175Z,3.90
2022-12-23T21:43:08.709Z,3.90
2022-12-23T21:48:11.051Z,3.90
2022-12-23T21:53:13.219Z,4.00
2022-12-23T21:58:15.151Z,4.00
2022-12-23T22:03:16.983Z,4.00
2022-12-23T22:08:21.977Z,4.00
2022-12-23T22:13:25.856Z,4.00
2022-12-23T22:18:28.030Z,4.00
2022-12-23T22:23:29.861Z,4.00
2022-12-23T22:28:33.361Z,4.00
2022-12-23T22:33:35.279Z,4.00
2022-12-23T22:38:40.495Z,4.00
2022-12-23T22:43:42.458Z,4.00
2022-12-23T22:48:44.537Z,4.00
2022-12-23T22:53:46.851Z,4.00
2022-12-23T22:58:51.523Z,4.00
2022-12-23T23:03:57.280Z,4.00
2022-12-23T23:08:59.541Z,4.00
2022-12-23T23:14:01.770Z,4.00
2022-12-23T23:19:04.650Z,4.00
2022-12-23T23:24:07.050Z,4.00
2022-12-23T23:29:09.083Z,4.00
2022-12-23T23:34:11.846Z,3.90
2022-12-23T23:39:13.897Z,3.90
2022-12-23T23:44:15.745Z,3.90
2022-12-23T23:49:17.739Z,3.90
2022-12-23T23:54:19.609Z,3.90
2022-12-23T23:59:21.442Z,3.90
